Time;durP1;ratioP1;P1;durP2;ratioP2;P2;SDS_P1;SDS_P2;PMS_P1;PMS_P2;Temp;Humidity;BMP_temperature;BMP_pressure;BME280_temperature;BME280_humidity;BME280_pressure;Samples;Min_cycle;Max_cycle;Signal;HPM_P1;HPM_P2
2022/05/02 00:00:12;;;;;;;16.30;9.15;;;7.90;99.90;;;;;;5077819;28;20040;-72
2022/05/02 00:02:38;;;;;;;14.90;8.70;;;;;;;;;;5080229;28;20083;-71
2022/05/02 00:05:05;;;;;;;20.10;9.77;;;;;;;;;;5057712;28;20436;-71
2022/05/02 00:07:31;;;;;;;12.73;8.65;;;;;;;;;;5081685;28;20049;-71
2022/05/02 00:09:57;;;;;;;16.80;9.20;;;;;;;;;;5073562;28;20040;-71
2022/05/02 00:12:23;;;;;;;14.95;9.35;;;;;;;;;;5068080;28;20051;-71
2022/05/02 00:14:49;;;;;;;13.38;8.57;;;;;;;;;;5094250;28;20044;-71
2022/05/02 00:17:16;;;;;;;17.50;9.68;;;;;;;;;;5085580;28;20089;-71
2022/05/02 00:19:42;;;;;;;12.77;8.75;;;;;;;;;;5077281;28;20122;-71
2022/05/02 00:22:08;;;;;;;13.40;8.93;;;;;;;;;;5085751;28;20060;-71
2022/05/02 00:24:34;;;;;;;16.02;9.15;;;;;;;;;;5073713;28;20076;-71
2022/05/02 00:27:00;;;;;;;13.23;8.88;;;;;;;;;;5083080;28;20419;-71
2022/05/02 00:29:26;;;;;;;17.60;8.68;;;;;;;;;;5073772;28;20041;-71
2022/05/02 00:31:52;;;;;;;13.60;8.70;;;;;;;;;;5078205;28;20123;-72
2022/05/02 00:34:19;;;;;;;15.07;9.30;;;;;;;;;;5076789;28;20062;-72
2022/05/02 00:36:45;;;;;;;18.30;9.27;;;;;;;;;;5059212;28;20584;-72
2022/05/02 00:39:11;;;;;;;14.40;9.52;;;;;;;;;;5093709;28;20093;-72
2022/05/02 00:41:37;;;;;;;15.23;8.45;;;;;;;;;;5092307;28;20043;-72
2022/05/02 00:44:03;;;;;;;16.38;9.73;;;;;;;;;;5073378;28;20041;-72
2022/05/02 00:46:29;;;;;;;17.13;9.85;;;;;;;;;;5084380;28;20403;-72
2022/05/02 00:48:55;;;;;;;16.58;9.50;;;;;;;;;;5073755;28;20055;-72
2022/05/02 00:51:22;;;;;;;16.13;9.15;;;;;;;;;;5079510;28;20044;-72
2022/05/02 00:53:48;;;;;;;18.70;9.98;;;;;;;;;;5075327;28;20036;-72
2022/05/02 00:56:18;;;;;;;15.88;9.40;;;;;;;;;;5081741;28;20070;-71
2022/05/02 00:58:45;;;;;;;14.45;9.77;;;;;;;;;;5060280;28;20076;-72
2022/05/02 01:01:11;;;;;;;16.50;9.10;;;;;;;;;;5073223;28;20075;-72
2022/05/02 01:03:37;;;;;;;16.40;9.35;;;;;;;;;;5096656;28;20040;-71
2022/05/02 01:08:48;;;;;;;17.65;9.07;;;;;;;;;;5091732;28;20545;-71
2022/05/02 01:11:15;;;;;;;15.75;9.60;;;;;;;;;;5056523;28;20384;-71
2022/05/02 01:13:45;;;;;;;16.17;9.88;;;;;;;;;;5056352;28;20504;-71
2022/05/02 01:16:29;;;;;;;17.10;9.70;;;;;;;;;;5072824;28;20044;-71
2022/05/02 01:18:57;;;;;;;16.73;9.35;;;;;;;;;;5071655;28;20068;-71
2022/05/02 01:21:31;;;;;;;16.98;9.73;;;6.80;99.90;;;;;;5084070;28;20036;-71
2022/05/02 01:24:01;;;;;;;14.95;9.18;;;;;;;;;;5070267;28;20102;-71
2022/05/02 01:26:28;;;;;;;14.60;9.38;;;;;;;;;;5093163;28;20079;-71
2022/05/02 01:29:01;;;;;;;15.05;10.20;;;6.80;99.90;;;;;;5079336;28;20102;-71
2022/05/02 01:31:27;;;;;;;16.20;9.57;;;;;;;;;;5075738;28;20115;-71
2022/05/02 01:33:54;;;;;;;16.75;9.85;;;;;;;;;;5079766;28;20040;-71
2022/05/02 01:36:20;;;;;;;18.20;10.48;;;;;;;;;;5088705;28;20036;-72
2022/05/02 01:38:46;;;;;;;14.32;9.38;;;;;;;;;;5083093;28;20503;-71
2022/05/02 01:41:12;;;;;;;16.23;9.88;;;;;;;;;;5072261;28;20484;-72
2022/05/02 01:43:39;;;;;;;17.38;10.40;;;6.60;99.90;;;;;;5063830;28;20036;-71
2022/05/02 01:46:07;;;;;;;15.82;10.43;;;6.80;99.90;;;;;;5079011;28;20071;-73
2022/05/02 01:48:33;;;;;;;21.05;11.15;;;;;;;;;;5074187;28;20039;-72
2022/05/02 01:51:00;;;;;;;16.42;10.63;;;;;;;;;;5072205;28;20048;-71
2022/05/02 01:53:26;;;;;;;14.75;10.40;;;6.70;99.90;;;;;;5060564;28;20036;-71
2022/05/02 01:55:53;;;;;;;17.52;11.18;;;;;;;;;;5092202;28;20060;-71
2022/05/02 01:58:19;;;;;;;17.40;10.93;;;6.60;99.90;;;;;;5072084;28;20045;-71
2022/05/02 02:00:45;;;;;;;17.05;10.93;;;;;;;;;;5092339;28;20043;-71
2022/05/02 02:03:11;;;;;;;17.33;10.05;;;;;;;;;;5072257;28;20050;-71
2022/05/02 02:05:50;;;;;;;19.38;10.50;;;;;;;;;;5084663;28;20036;-71
2022/05/02 02:08:21;;;;;;;15.98;10.30;;;;;;;;;;5089836;28;20102;-71
2022/05/02 02:10:47;;;;;;;15.40;10.32;;;;;;;;;;5072233;28;20040;-71
2022/05/02 02:13:13;;;;;;;17.20;10.07;;;;;;;;;;5073376;28;20388;-71
2022/05/02 02:15:40;;;;;;;16.40;10.32;;;;;;;;;;5079985;28;20044;-72
2022/05/02 02:18:06;;;;;;;18.90;10.40;;;;;;;;;;5071749;28;20086;-71
2022/05/02 02:20:33;;;;;;;16.65;10.13;;;6.40;99.90;;;;;;5072084;28;20189;-71
2022/05/02 02:22:59;;;;;;;19.70;10.43;;;;;;;;;;5071833;28;20040;-71
2022/05/02 02:25:25;;;;;;;18.52;10.77;;;;;;;;;;5082131;28;20495;-72
2022/05/02 02:27:52;;;;;;;17.73;10.73;;;;;;;;;;5072928;28;20127;-72
2022/05/02 02:30:19;;;;;;;16.05;10.00;;;;;;;;;;5072172;28;20097;-72
2022/05/02 02:32:45;;;;;;;16.02;9.90;;;;;;;;;;5075766;28;20040;-72
2022/05/02 02:35:11;;;;;;;18.90;10.45;;;;;;;;;;5063198;28;20055;-73
2022/05/02 02:37:37;;;;;;;15.50;10.57;;;;;;;;;;5087037;28;20047;-71
2022/05/02 02:40:04;;;;;;;17.67;10.02;;;;;;;;;;5094395;28;20093;-72
2022/05/02 02:42:30;;;;;;;15.68;10.00;;;;;;;;;;5079408;28;20076;-72
2022/05/02 02:44:56;;;;;;;18.73;9.35;;;;;;;;;;5082903;28;20037;-72
2022/05/02 02:47:22;;;;;;;19.35;10.70;;;;;;;;;;5084521;28;20050;-72
2022/05/02 02:49:48;;;;;;;15.05;9.95;;;;;;;;;;5083964;28;20041;-71
2022/05/02 02:52:14;;;;;;;16.50;10.43;;;;;;;;;;5075569;28;20040;-71
2022/05/02 02:54:40;;;;;;;15.57;10.10;;;;;;;;;;5106610;28;20107;-71
2022/05/02 02:57:06;;;;;;;14.52;9.82;;;;;;;;;;5080107;28;20044;-72
2022/05/02 02:59:32;;;;;;;16.73;10.10;;;;;;;;;;5063295;28;20040;-72
2022/05/02 03:01:58;;;;;;;17.17;10.43;;;;;;;;;;5077412;28;20045;-72
2022/05/02 03:07:09;;;;;;;15.45;10.13;;;;;;;;;;5075323;28;20048;-72
2022/05/02 03:09:36;;;;;;;15.70;10.20;;;;;;;;;;5082706;28;20488;-72
2022/05/02 03:12:02;;;;;;;21.13;11.07;;;5.90;99.90;;;;;;5076480;28;20075;-72
2022/05/02 03:14:29;;;;;;;16.50;9.98;;;;;;;;;;5081054;28;20468;-71
2022/05/02 03:16:55;;;;;;;18.77;11.32;;;;;;;;;;5095365;28;20040;-73
2022/05/02 03:19:21;;;;;;;15.35;10.77;;;;;;;;;;5071206;28;20124;-72
2022/05/02 03:21:47;;;;;;;14.45;9.50;;;;;;;;;;5088509;28;20439;-72
2022/05/02 03:24:13;;;;;;;17.05;10.98;;;;;;;;;;5078131;28;20036;-72
2022/05/02 03:26:39;;;;;;;14.98;9.50;;;;;;;;;;5095606;28;20047;-73
2022/05/02 03:29:05;;;;;;;14.98;9.43;;;;;;;;;;5093012;28;20036;-72
2022/05/02 03:31:31;;;;;;;18.15;9.13;;;;;;;;;;5061368;28;20051;-72
2022/05/02 03:33:57;;;;;;;16.38;10.60;;;;;;;;;;5094819;28;20043;-73
2022/05/02 03:36:23;;;;;;;16.13;9.82;;;;;;;;;;5095032;28;20335;-72
2022/05/02 03:38:49;;;;;;;14.48;9.75;;;;;;;;;;5095402;28;20044;-72
2022/05/02 03:41:16;;;;;;;14.30;9.13;;;;;;;;;;5060799;28;20040;-72
2022/05/02 03:43:42;;;;;;;16.60;9.30;;;;;;;;;;5074796;28;20052;-72
2022/05/02 03:46:08;;;;;;;19.90;10.05;;;5.60;99.90;;;;;;5041997;28;20561;-71
2022/05/02 03:48:34;;;;;;;16.60;10.35;;;;;;;;;;5083138;28;20041;-72
2022/05/02 03:51:00;;;;;;;18.52;9.73;;;;;;;;;;5057854;28;20252;-72
2022/05/02 03:53:26;;;;;;;12.38;8.90;;;;;;;;;;5090735;28;20376;-72
2022/05/02 03:55:53;;;;;;;15.45;9.55;;;;;;;;;;5094378;28;20478;-72
2022/05/02 03:58:19;;;;;;;13.88;9.25;;;;;;;;;;5080339;28;20045;-72
2022/05/02 04:00:45;;;;;;;14.18;8.80;;;;;;;;;;5094487;28;20484;-72
2022/05/02 04:03:11;;;;;;;15.07;9.73;;;;;;;;;;5080798;28;20047;-72
2022/05/02 04:05:37;;;;;;;14.25;9.07;;;;;;;;;;5074807;28;20059;-72
2022/05/02 04:08:04;;;;;;;19.65;10.10;;;;;;;;;;5099806;28;20041;-72
2022/05/02 04:10:30;;;;;;;15.65;9.88;;;;;;;;;;5057464;28;20037;-73
2022/05/02 04:12:56;;;;;;;14.65;9.32;;;;;;;;;;5083519;28;20070;-72
2022/05/02 04:15:22;;;;;;;18.27;9.32;;;;;;;;;;5084897;28;20077;-73
2022/05/02 04:17:48;;;;;;;14.45;9.45;;;;;;;;;;5076504;28;20036;-72
2022/05/02 04:20:14;;;;;;;15.13;9.40;;;;;;;;;;5057563;28;20048;-72
2022/05/02 04:22:41;;;;;;;17.85;10.30;;;5.40;99.90;;;;;;5062868;28;20085;-72
2022/05/02 04:25:07;;;;;;;13.40;9.32;;;5.50;99.90;;;;;;5073535;28;20399;-72
2022/05/02 04:27:34;;;;;;;15.70;9.65;;;;;;;;;;5088442;28;20055;-72
2022/05/02 04:30:00;;;;;;;18.67;9.48;;;5.40;99.90;;;;;;5083730;28;20040;-72
2022/05/02 04:32:26;;;;;;;16.30;9.48;;;;;;;;;;5068174;28;20040;-72
2022/05/02 04:34:55;;;;;;;17.95;9.82;;;;;;;;;;5093935;28;20051;-72
2022/05/02 04:37:22;;;;;;;16.13;9.73;;;;;;;;;;5072525;28;20035;-72
2022/05/02 04:39:48;;;;;;;15.90;9.70;;;;;;;;;;5082014;28;20119;-72
2022/05/02 04:42:14;;;;;;;15.75;9.85;;;;;;;;;;5107294;28;20089;-72
2022/05/02 04:44:40;;;;;;;13.73;9.40;;;;;;;;;;5093794;28;20036;-72
2022/05/02 04:47:06;;;;;;;15.93;9.75;;;;;;;;;;5093647;28;20040;-72
2022/05/02 04:49:32;;;;;;;17.45;9.40;;;;;;;;;;5082848;28;20051;-72
2022/05/02 04:51:58;;;;;;;15.45;9.45;;;;;;;;;;5093560;28;20092;-71
2022/05/02 04:54:24;;;;;;;17.55;8.98;;;;;;;;;;5067408;28;20032;-71
2022/05/02 04:56:50;;;;;;;13.07;9.13;;;;;;;;;;5060726;28;20086;-72
2022/05/02 04:59:16;;;;;;;14.68;8.93;;;;;;;;;;5082573;28;20072;-72
2022/05/02 05:01:42;;;;;;;14.52;8.40;;;;;;;;;;5073055;28;20049;-72
2022/05/02 05:04:09;;;;;;;15.05;9.68;;;;;;;;;;5086366;28;20392;-72
2022/05/02 05:06:35;;;;;;;14.27;9.43;;;;;;;;;;5090901;28;20044;-72
2022/05/02 05:09:01;;;;;;;15.23;9.68;;;;;;;;;;5079185;28;20423;-71
2022/05/02 05:11:36;;;;;;;14.55;9.27;;;5.80;99.90;;;;;;5056664;28;20046;-71
2022/05/02 05:17:27;;;;;;;15.93;10.20;;;5.60;99.90;;;;;;5093426;28;20040;-71
2022/05/02 05:19:53;;;;;;;19.55;10.65;;;;;;;;;;5074481;28;20048;-71
2022/05/02 05:22:19;;;;;;;15.55;9.95;;;;;;;;;;5075758;28;20119;-71
2022/05/02 05:24:56;;;;;;;18.45;11.48;;;5.70;99.90;;;;;;5086319;28;20079;-72
2022/05/02 05:27:31;;;;;;;16.60;10.05;;;;;;;;;;5074918;28;20040;-72
2022/05/02 05:30:02;;;;;;;15.45;10.63;;;;;;;;;;5057480;28;20400;-72
2022/05/02 05:32:46;;;;;;;20.38;11.60;;;5.90;99.90;;;;;;5073931;28;20083;-72
2022/05/02 05:35:19;;;;;;;24.45;13.45;;;6.00;99.90;;;;;;5075694;28;20105;-72
2022/05/02 05:37:54;;;;;;;25.67;14.68;;;;;;;;;;5078968;28;20046;-73
2022/05/02 05:40:44;;;;;;;26.10;14.50;;;6.20;99.90;;;;;;5083640;28;20028;-72
2022/05/02 05:43:17;;;;;;;28.17;15.77;;;;;;;;;;5089975;28;20036;-72
2022/05/02 05:45:51;;;;;;;26.90;16.05;;;6.30;99.90;;;;;;5072389;28;20068;-72
2022/05/02 05:48:36;;;;;;;28.17;16.15;;;;;;;;;;5068903;28;20072;-72
2022/05/02 05:51:28;;;;;;;28.58;16.17;;;6.50;99.90;;;;;;5092770;28;20044;-72
2022/05/02 05:54:06;;;;;;;32.07;17.13;;;;;;;;;;5069249;28;20090;-72
2022/05/02 05:56:50;;;;;;;27.92;15.05;;;6.60;99.90;;;;;;5071754;28;20786;-70
2022/05/02 05:59:40;;;;;;;30.17;17.75;;;6.60;99.90;;;;;;5075488;28;20052;-73
2022/05/02 06:02:29;;;;;;;25.90;11.82;;;6.60;99.90;;;;;;5072053;28;20033;-73
2022/05/02 06:04:59;;;;;;;32.50;13.60;;;6.70;99.90;;;;;;5085105;28;20120;-72
2022/05/02 06:07:28;;;;;;;26.42;13.65;;;7.00;99.90;;;;;;5091300;28;20044;-75
2022/05/02 06:09:57;;;;;;;22.45;13.73;;;7.00;99.90;;;;;;5085619;28;20089;-71
2022/05/02 06:12:24;;;;;;;20.35;14.20;;;;;;;;;;5092180;28;20075;-74
2022/05/02 06:20:29;;;;;;;25.60;14.15;;;7.40;99.90;;;;;;5087800;28;20044;-69
2022/05/02 06:22:57;;;;;;;23.98;15.10;;;;;;;;;;5091602;28;20115;-68
2022/05/02 06:25:24;;;;;;;21.98;14.90;;;;;;;;;;5079095;28;20049;-70
2022/05/02 06:27:50;;;;;;;23.48;14.80;;;;;;;;;;5092267;28;20047;-70
2022/05/02 06:30:16;;;;;;;25.20;13.90;;;;;;;;;;5077817;28;20036;-69
2022/05/02 06:32:46;;;;;;;29.42;16.35;;;7.50;99.90;;;;;;5071893;28;20115;-69
2022/05/02 06:35:13;;;;;;;23.45;15.15;;;;;;;;;;5071848;28;20032;-70
2022/05/02 06:37:59;;;;;;;22.85;13.02;;;7.70;99.90;;;;;;5074342;28;20078;-70
2022/05/02 06:40:33;;;;;;;25.92;14.07;;;;;;;;;;5073033;28;20385;-70
2022/05/02 06:43:11;;;;;;;22.00;12.32;;;7.80;99.90;;;;;;5071647;28;20048;-70
2022/05/02 06:45:42;;;;;;;24.08;12.98;;;;;;;;;;5072954;28;20124;-70
2022/05/02 06:48:20;;;;;;;21.20;13.77;;;;;;;;;;5071811;28;20052;-75
2022/05/02 06:50:48;;;;;;;24.70;13.55;;;;;;;;;;5078444;28;20044;-70
2022/05/02 06:53:27;;;;;;;29.13;14.32;;;8.10;99.90;;;;;;5072524;28;20048;-70
2022/05/02 06:56:13;;;;;;;22.77;13.05;;;8.20;99.90;;;;;;5054893;28;20099;-69
2022/05/02 06:58:39;;;;;;;21.20;12.63;;;;;;;;;;5072010;28;20048;-69
2022/05/02 07:01:08;;;;;;;20.70;13.07;;;;;;;;;;5091985;28;20098;-69
2022/05/02 07:04:00;;;;;;;22.65;13.55;;;;;;;;;;5078353;28;20102;-69
2022/05/02 07:06:45;;;;;;;17.75;12.15;;;;;;;;;;5089354;28;20047;-70
2022/05/02 07:09:17;;;;;;;18.40;11.88;;;;;;;;;;5086471;28;20492;-69
2022/05/02 07:12:19;;;;;;;21.70;12.77;;;8.50;99.90;;;;;;5103485;28;20093;-69
2022/05/02 07:15:00;;;;;;;22.05;12.02;;;;;;;;;;4997320;28;20049;-70
2022/05/02 07:17:47;;;;;;;25.95;11.52;;;;;;;;;;5070885;28;20044;-70
2022/05/02 07:20:23;;;;;;;16.17;10.68;;;;;;;;;;5086099;28;20040;-69
2022/05/02 07:23:03;;;;;;;18.27;10.10;;;8.70;99.90;;;;;;5081971;28;20515;-70
2022/05/02 07:25:30;;;;;;;18.73;10.48;;;;;;;;;;5070951;28;20119;-70
2022/05/02 07:28:03;;;;;;;17.75;10.98;;;;;;;;;;5095237;28;20036;-70
2022/05/02 07:30:30;;;;;;;16.13;10.48;;;9.10;99.90;;;;;;5082743;28;20492;-70
2022/05/02 07:32:57;;;;;;;15.57;9.85;;;;;;;;;;5087827;28;20548;-70
2022/05/02 07:35:24;;;;;;;16.85;10.43;;;9.10;99.90;;;;;;5071535;28;20373;-70
2022/05/02 07:37:50;;;;;;;18.60;10.52;;;;;;;;;;5095220;28;20043;-70
2022/05/02 07:40:21;;;;;;;15.15;9.73;;;9.30;99.90;;;;;;5085949;28;20115;-69
2022/05/02 07:42:48;;;;;;;15.63;9.50;;;;;;;;;;5074767;28;20040;-69
2022/05/02 07:45:17;;;;;;;17.27;10.10;;;9.70;99.90;;;;;;5064437;28;20036;-69
2022/05/02 07:47:43;;;;;;;17.90;10.70;;;;;;;;;;5085159;28;20120;-72
2022/05/02 07:50:12;;;;;;;16.17;9.25;;;9.50;99.90;;;;;;5083708;28;20130;-72
2022/05/02 07:52:41;;;;;;;20.73;11.30;;;9.70;99.90;;;;;;5058068;28;20105;-73
2022/05/02 07:55:09;;;;;;;16.52;9.32;;;10.30;99.90;;;;;;5086078;28;20429;-72
2022/05/02 07:57:38;;;;;;;18.52;8.27;;;10.00;99.90;;;;;;5094362;28;20127;-71
2022/05/02 08:00:07;;;;;;;17.27;8.98;;;;;;;;;;5049797;28;20041;-68
2022/05/02 08:02:34;;;;;;;16.33;9.20;;;10.20;99.90;;;;;;5074939;28;20119;-68
2022/05/02 08:05:00;;;;;;;19.00;8.38;;;;;;;;;;5083077;28;20127;-68
2022/05/02 08:07:37;;;;;;;19.25;9.13;;;10.10;99.90;;;;;;5087595;28;20055;-68
2022/05/02 08:10:32;;;;;;;15.43;9.32;;;10.30;99.90;;;;;;5082257;28;20044;-68
2022/05/02 08:13:10;;;;;;;22.05;10.60;;;10.30;99.90;;;;;;5092164;28;20040;-68
2022/05/02 08:15:39;;;;;;;16.95;9.82;;;;;;;;;;5080160;28;20048;-68
2022/05/02 08:18:10;;;;;;;17.65;10.27;;;10.50;99.90;;;;;;5058428;28;20029;-68
2022/05/02 08:20:42;;;;;;;16.55;9.45;;;;;;;;;;5079000;28;20036;-69
2022/05/02 08:29:43;;;;;;;15.25;8.38;;;10.80;99.90;;;;;;5075191;28;20036;-73
2022/05/02 08:32:14;;;;;;;17.42;9.57;;;;;;;;;;5074936;28;20532;-72
2022/05/02 08:34:40;;;;;;;16.67;8.95;;;;;;;;;;5063009;28;20059;-72
2022/05/02 08:37:27;;;;;;;15.15;8.18;;;10.90;99.90;;;;;;5089119;28;20390;-68
2022/05/02 08:40:05;;;;;;;15.43;8.40;;;;;;;;;;5082135;28;20040;-69
2022/05/02 08:42:31;;;;;;;17.23;9.10;;;;;;;;;;5090023;28;20042;-75
2022/05/02 08:45:22;;;;;;;17.80;9.13;;;11.10;99.90;;;;;;5083813;28;20040;-76
2022/05/02 08:48:09;;;;;;;15.35;8.45;;;;;;;;;;5100594;28;20037;-73
2022/05/02 08:50:35;;;;;;;15.25;8.40;;;;;;;;;;5087066;28;20032;-72
2022/05/02 08:53:20;;;;;;;13.65;8.52;;;;;;;;;;5091529;28;20553;-72
2022/05/02 08:56:00;;;;;;;15.55;8.80;;;;;;;;;;5082551;28;20048;-75
2022/05/02 08:58:54;;;;;;;16.00;8.80;;;11.60;99.90;;;;;;5091862;28;20063;-79
2022/05/02 09:01:32;;;;;;;14.45;9.18;;;;;;;;;;5076868;28;20037;-80
2022/05/02 09:04:04;;;;;;;15.30;9.63;;;;;;;;;;5085192;28;20039;-73
2022/05/02 09:07:19;;;;;;;14.30;9.25;;;12.10;99.10;;;;;;5078131;28;20067;-75
2022/05/02 09:09:51;;;;;;;17.58;8.52;;;;;;;;;;5086262;28;20044;-70
2022/05/02 09:12:48;;;;;;;14.90;9.02;;;;;;;;;;5071975;28;20039;-70
2022/05/02 09:15:26;;;;;;;16.73;9.18;;;;;;;;;;5105462;28;20132;-70
2022/05/02 09:18:17;;;;;;;13.93;9.38;;;12.60;97.80;;;;;;5072304;28;20040;-70
2022/05/02 09:20:53;;;;;;;13.63;8.45;;;12.80;98.50;;;;;;5072879;28;20082;-70
2022/05/02 09:23:28;;;;;;;13.93;9.07;;;;;;;;;;5072676;28;20133;-70
2022/05/02 09:26:06;;;;;;;16.17;8.32;;;12.80;97.20;;;;;;5072883;28;20040;-70
2022/05/02 09:29:02;;;;;;;18.17;7.85;;;;;;;;;;5056281;28;20028;-71
2022/05/02 09:31:42;;;;;;;17.38;8.18;;;13.00;97.50;;;;;;5072552;28;20411;-71
2022/05/02 09:34:41;;;;;;;14.65;8.18;;;12.90;97.50;;;;;;5055912;28;20123;-71
2022/05/02 09:37:20;;;;;;;14.52;8.70;;;12.80;97.10;;;;;;5071799;28;20040;-71
2022/05/02 09:40:02;;;;;;;15.60;8.65;;;;;;;;;;5072660;28;20391;-71
2022/05/02 09:42:47;;;;;;;15.00;8.77;;;13.30;95.60;;;;;;5072261;28;20036;-70
2022/05/02 09:51:33;;;;;;;15.30;7.63;;;;;;;;;;5072608;28;20051;-70
2022/05/02 09:54:05;;;;;;;12.88;7.20;;;;;;;;;;5072424;28;20036;-70
2022/05/02 09:56:41;;;;;;;12.32;7.00;;;13.50;95.40;;;;;;5072144;28;20511;-71
2022/05/02 09:59:25;;;;;;;14.80;8.55;;;13.70;96.10;;;;;;5072268;28;20045;-71
2022/05/02 10:02:02;;;;;;;15.05;8.40;;;13.80;95.80;;;;;;5072217;28;20450;-71
2022/05/02 10:04:40;;;;;;;15.85;8.27;;;13.80;94.70;;;;;;5072418;28;20404;-71
2022/05/02 10:07:08;;;;;;;15.68;8.30;;;13.80;95.30;;;;;;5072262;28;20538;-71
2022/05/02 10:09:49;;;;;;;11.77;8.05;;;;;;;;;;5072487;28;20040;-71
2022/05/02 10:12:25;;;;;;;11.93;7.78;;;14.20;94.20;;;;;;5071745;28;20041;-70
2022/05/02 10:15:02;;;;;;;14.25;7.82;;;;;;;;;;5071845;28;20430;-70
2022/05/02 10:17:54;;;;;;;13.45;7.70;;;14.50;93.90;;;;;;5055240;28;20098;-70
2022/05/02 10:20:22;;;;;;;16.73;8.07;;;;;;;;;;5090350;28;20048;-71
2022/05/02 10:22:48;;;;;;;13.57;7.85;;;;;;;;;;5071663;28;20123;-70
2022/05/02 10:25:29;;;;;;;11.38;7.20;;;;;;;;;;5054993;28;20044;-70
2022/05/02 10:28:07;;;;;;;15.82;8.20;;;;;;;;;;5071759;28;20123;-70
2022/05/02 10:30:59;;;;;;;13.80;7.78;;;14.20;93.20;;;;;;5071718;28;20059;-70
2022/05/02 10:33:51;;;;;;;11.57;6.57;;;14.20;93.30;;;;;;5072113;28;20443;-70
2022/05/02 10:36:23;;;;;;;14.40;6.85;;;;;;;;;;5105059;28;20044;-69
2022/05/02 10:38:52;;;;;;;17.33;7.13;;;;;;;;;;5054896;28;20472;-70
2022/05/02 10:41:27;;;;;;;11.23;6.25;;;14.70;92.20;;;;;;5055235;28;20063;-70
2022/05/02 10:44:00;;;;;;;9.30;6.60;;;;;;;;;;5071602;28;20098;-70
2022/05/02 10:46:26;;;;;;;9.85;6.40;;;;;;;;;;5071572;28;20068;-70
2022/05/02 10:49:01;;;;;;;11.48;5.60;;;14.60;91.90;;;;;;5071665;28;20046;-69
2022/05/02 10:51:33;;;;;;;10.00;6.22;;;14.90;90.10;;;;;;5071856;28;20058;-69
2022/05/02 10:54:02;;;;;;;11.85;6.13;;;;;;;;;;5056197;28;20076;-70
2022/05/02 10:56:45;;;;;;;13.40;6.35;;;14.90;90.10;;;;;;5075753;28;20131;-70
2022/05/02 10:59:14;;;;;;;9.50;6.18;;;14.90;91.20;;;;;;5075731;28;20384;-70
2022/05/02 11:01:40;;;;;;;8.55;5.50;;;;;;;;;;5059011;28;20435;-70
2022/05/02 11:04:43;;;;;;;9.23;5.72;;;15.20;87.80;;;;;;5075394;28;20483;-70
2022/05/02 11:07:09;;;;;;;;;;;;;;;;;;5076147;28;20342;-70
2022/05/02 11:09:49;;;;;;;12.32;6.38;;;15.40;90.80;;;;;;5109252;28;19923;-70
2022/05/02 11:12:17;;;;;;;10.25;5.25;;;15.60;90.10;;;;;;5075565;28;20048;-70
2022/05/02 11:15:01;;;;;;;11.57;5.55;;;;;;;;;;5075206;28;20048;-70
2022/05/02 11:17:46;;;;;;;13.52;7.00;;;;;;;;;;5075240;28;20040;-70
2022/05/02 11:20:43;;;;;;;12.63;6.38;;;15.70;90.30;;;;;;5075393;28;20446;-70
2022/05/02 11:23:19;;;;;;;16.08;7.30;;;15.90;90.20;;;;;;5058456;28;20097;-70
2022/05/02 11:26:12;;;;;;;9.38;6.20;;;15.90;90.10;;;;;;5058431;28;20047;-70
2022/05/02 11:28:53;;;;;;;13.98;6.93;;;15.80;92.90;;;;;;5072922;28;20052;-70
2022/05/02 11:31:29;;;;;;;14.13;6.75;;;15.90;89.40;;;;;;5074950;28;20040;-70
2022/05/02 11:34:10;;;;;;;12.65;6.82;;;;;;;;;;5058114;28;20040;-71
2022/05/02 11:36:44;;;;;;;10.60;7.35;;;16.00;89.20;;;;;;5075972;28;20040;-71
2022/05/02 11:39:14;;;;;;;13.65;8.55;;;;;;;;;;5058154;28;20036;-71
2022/05/02 11:41:45;;;;;;;15.65;9.02;;;;;;;;;;5074776;28;20455;-74
2022/05/02 11:44:13;;;;;;;13.95;7.45;;;15.70;90.50;;;;;;5076008;28;20048;-74
2022/05/02 11:47:00;;;;;;;19.58;9.13;;;15.80;90.10;;;;;;5058121;28;20045;-74
2022/05/02 11:49:26;;;;;;;16.52;9.63;;;;;;;;;;5074501;28;20047;-74
2022/05/02 11:51:53;;;;;;;14.38;8.82;;;;;;;;;;5074484;28;20052;-73
2022/05/02 11:54:28;;;;;;;17.25;9.30;;;;;;;;;;5057760;28;20052;-71
2022/05/02 11:56:55;;;;;;;14.88;9.80;;;;;;;;;;5074412;28;20055;-71
2022/05/02 11:59:24;;;;;;;16.85;9.20;;;15.80;90.70;;;;;;5057792;28;20048;-70
2022/05/02 12:01:56;;;;;;;15.48;8.90;;;;;;;;;;5057664;28;20488;-71
2022/05/02 12:04:29;;;;;;;20.15;9.43;;;16.00;90.70;;;;;;5074315;28;20507;-70
2022/05/02 12:07:04;;;;;;;17.85;8.82;;;;;;;;;;5073305;28;20048;-70
2022/05/02 12:09:34;;;;;;;16.25;8.93;;;;;;;;;;5074566;28;20497;-70
2022/05/02 12:12:04;;;;;;;14.90;8.90;;;;;;;;;;5074173;28;20123;-70
2022/05/02 12:14:31;;;;;;;15.70;9.10;;;;;;;;;;5074075;28;20045;-70
2022/05/02 12:17:09;;;;;;;15.00;9.18;;;16.20;89.30;;;;;;5074417;28;20103;-71
2022/05/02 12:19:36;;;;;;;15.65;8.77;;;;;;;;;;5074477;28;20374;-70
2022/05/02 12:22:04;;;;;;;16.15;8.82;;;16.10;90.50;;;;;;5074345;28;20057;-70
2022/05/02 12:24:36;;;;;;;13.95;7.63;;;;;;;;;;5057572;28;20131;-70
2022/05/02 12:27:08;;;;;;;12.15;8.23;;;16.50;90.50;;;;;;5073977;28;20052;-70
2022/05/02 12:29:35;;;;;;;16.92;9.23;;;;;;;;;;5074240;28;20080;-70
2022/05/02 12:32:03;;;;;;;15.93;9.02;;;16.50;90.10;;;;;;5107681;28;20044;-70
2022/05/02 12:34:37;;;;;;;14.93;9.02;;;;;;;;;;5073825;28;20073;-70
2022/05/02 12:37:09;;;;;;;15.85;9.10;;;16.40;90.00;;;;;;5056863;28;20040;-71
2022/05/02 12:39:49;;;;;;;15.80;8.15;;;16.60;90.50;;;;;;5073556;28;20084;-71
2022/05/02 12:42:18;;;;;;;16.58;9.02;;;16.40;90.30;;;;;;5107486;28;20115;-71
2022/05/02 12:44:59;;;;;;;19.38;9.90;;;16.50;88.20;;;;;;5073773;28;20044;-70
2022/05/02 12:47:26;;;;;;;15.52;8.27;;;;;;;;;;5056847;28;20048;-70
2022/05/02 12:50:07;;;;;;;17.60;8.13;;;16.50;87.10;;;;;;5073674;28;20067;-70
2022/05/02 12:52:34;;;;;;;17.52;9.02;;;16.00;93.40;;;;;;5073632;28;20496;-73
2022/05/02 12:55:00;;;;;;;16.25;7.80;;;;;;;;;;5073260;28;20045;-73
2022/05/02 13:00:32;;;;;;;13.77;7.90;;;;;;;;;;5073496;28;20469;-73
2022/05/02 13:03:05;;;;;;;9.98;6.63;;;16.50;88.10;;;;;;5073243;28;20386;-70
2022/05/02 13:05:34;;;;;;;13.73;7.57;;;16.70;86.30;;;;;;5074066;28;20048;-70
2022/05/02 13:08:19;;;;;;;15.18;6.72;;;16.80;86.00;;;;;;5072780;28;20055;-70
2022/05/02 13:10:46;;;;;;;9.52;6.25;;;16.60;85.20;;;;;;5072934;28;20056;-70
2022/05/02 13:13:15;;;;;;;14.40;7.20;;;16.50;86.10;;;;;;5073171;28;20434;-71
2022/05/02 13:15:45;;;;;;;14.13;6.95;;;;;;;;;;5072947;28;20052;-71
2022/05/02 13:18:16;;;;;;;11.98;7.18;;;16.80;86.00;;;;;;5073405;28;20028;-71
2022/05/02 13:20:57;;;;;;;11.52;6.38;;;16.10;90.50;;;;;;5072465;28;20072;-70
2022/05/02 13:23:23;;;;;;;12.60;6.90;;;;;;;;;;5072610;28;20491;-70
2022/05/02 13:26:08;;;;;;;10.10;5.93;;;16.90;82.80;;;;;;5072584;28;20484;-69
2022/05/02 13:29:02;;;;;;;11.18;6.00;;;17.80;91.20;;;;;;5055979;28;20051;-69
2022/05/02 13:31:41;;;;;;;10.68;5.68;;;;;;;;;;5072839;28;20048;-71
2022/05/02 13:34:07;;;;;;;10.63;6.03;;;;;;;;;;5072451;28;20065;-70
2022/05/02 13:36:43;;;;;;;13.15;6.00;;;;;;;;;;5055737;28;20078;-70
2022/05/02 13:39:15;;;;;;;12.05;6.78;;;;;;;;;;5072442;28;20052;-70
2022/05/02 13:42:03;;;;;;;12.25;5.90;;;17.10;82.50;;;;;;5072399;28;20072;-70
2022/05/02 13:44:42;;;;;;;10.55;5.30;;;16.90;80.90;;;;;;5072256;28;20048;-70
2022/05/02 13:47:15;;;;;;;11.15;6.05;;;17.80;81.60;;;;;;5072210;28;20128;-71
2022/05/02 13:50:21;;;;;;;10.75;5.18;;;16.90;80.10;;;;;;5072243;28;20055;-71
2022/05/02 13:53:20;;;;;;;8.95;5.10;;;17.00;80.90;;;;;;5048052;28;20048;-70
2022/05/02 13:56:01;;;;;;;11.32;5.95;;;;;;;;;;5071953;28;20045;-70
2022/05/02 13:58:56;;;;;;;10.15;5.57;;;17.10;83.70;;;;;;5071639;28;20048;-70
2022/05/02 14:01:29;;;;;;;10.65;5.50;;;17.00;80.10;;;;;;5072019;28;20056;-70
2022/05/02 14:04:17;;;;;;;10.57;6.15;;;16.90;82.90;;;;;;5055581;28;20044;-71
2022/05/02 14:07:35;;;;;;;13.48;5.57;;;16.70;82.90;;;;;;5071889;28;20487;-71
2022/05/02 14:09:49;;;;;;;12.05;5.43;;;16.50;80.00;;;;;;5057634;28;20049;-71
2022/05/02 14:12:24;;;;;;;9.32;5.35;;;17.60;90.90;;;;;;5055474;28;20041;-71
2022/05/02 14:14:57;;;;;;;9.02;4.60;;;17.10;81.80;;;;;;5071864;28;20090;-71
2022/05/02 14:17:28;;;;;;;7.93;4.10;;;17.60;90.30;;;;;;5071778;28;20120;-71
2022/05/02 14:20:20;;;;;;;10.15;3.92;;;16.70;80.30;;;;;;5072194;28;20127;-71
2022/05/02 14:22:48;;;;;;;10.70;4.35;;;16.80;81.30;;;;;;5055124;28;20102;-71
2022/05/02 14:25:29;;;;;;;10.07;4.18;;;16.70;81.40;;;;;;5071613;28;20051;-70
2022/05/02 14:27:57;;;;;;;7.97;4.20;;;;;;;;;;5071599;28;20052;-70
2022/05/02 14:30:26;;;;;;;14.50;5.20;;;15.40;90.50;;;;;;5072408;28;20051;-69
2022/05/02 14:32:55;;;;;;;5.57;3.45;;;16.20;83.20;;;;;;5071978;28;20036;-69
2022/05/02 14:35:25;;;;;;;11.85;3.80;;;16.30;83.20;;;;;;5071612;28;20462;-71
2022/05/02 14:37:53;;;;;;;5.00;3.20;;;16.50;83.10;;;;;;5055030;28;20044;-71
2022/05/02 14:40:19;;;;;;;8.05;3.70;;;;;;;;;;5055021;28;20041;-70